Winter, Wisconsin
Current Conditions -  °F | °C
As of 2:15 PM on Thursday 30 Oct 2014 (Local Time) from KRCX Reporting Station
Overcast Overcast  
Wind Chill: 38°   Ceiling: 3800
Heat Index: 42°   Visibility: 10mi
Dew Point: 34°   Wind: 7mph
Humidity: 73%   Direction: 280°W
Pressure: 30.08"   Gusts: NA
Location:  45.82°N, 91.01°W
Report Text: KRCX 301915Z AUTO 28006KT 10SM OVC038 06/01 A3008 RMK AO2 T00570012
Loading
Personal Weather Stations






























Interactive Weather Map New forecast layout! Learn more

10-Day Weather Forecast

Advertisements
Track Severe Weather on mobile